sensor_id;sensor_type;location;lat;lon;timestamp;pressure;altitude;pressure_sealevel;temperature;humidity
49645;BME280;36494;50.730;-1.932;2024-02-23T00:00:17;98174.23;;;5.50;100.00
49645;BME280;36494;50.730;-1.932;2024-02-23T00:02:42;98172.45;;;5.54;100.00
49645;BME280;36494;50.730;-1.932;2024-02-23T00:05:08;98170.09;;;5.58;100.00
49645;BME280;36494;50.730;-1.932;2024-02-23T00:07:36;98166.15;;;5.57;100.00
49645;BME280;36494;50.730;-1.932;2024-02-23T00:09:59;98161.77;;;5.63;100.00
49645;BME280;36494;50.730;-1.932;2024-02-23T00:12:25;98165.50;;;5.65;100.00
49645;BME280;36494;50.730;-1.932;2024-02-23T00:14:50;98160.64;;;5.62;100.00
49645;BME280;36494;50.730;-1.932;2024-02-23T00:17:16;98155.92;;;5.65;100.00
49645;BME280;36494;50.730;-1.932;2024-02-23T00:19:44;98153.38;;;5.68;100.00
49645;BME280;36494;50.730;-1.932;2024-02-23T00:22:07;98145.45;;;5.72;100.00
49645;BME280;36494;50.730;-1.932;2024-02-23T00:24:33;98143.66;;;5.73;100.00
49645;BME280;36494;50.730;-1.932;2024-02-23T00:26:59;98139.70;;;5.77;100.00
49645;BME280;36494;50.730;-1.932;2024-02-23T00:29:24;98131.78;;;5.80;100.00
49645;BME280;36494;50.730;-1.932;2024-02-23T00:31:50;98124.78;;;5.79;100.00
49645;BME280;36494;50.730;-1.932;2024-02-23T00:34:16;98119.05;;;5.86;100.00
49645;BME280;36494;50.730;-1.932;2024-02-23T00:36:42;98110.52;;;5.87;100.00
49645;BME280;36494;50.730;-1.932;2024-02-23T00:39:07;98108.33;;;5.91;100.00
49645;BME280;36494;50.730;-1.932;2024-02-23T00:41:32;98108.88;;;6.00;100.00
49645;BME280;36494;50.730;-1.932;2024-02-23T00:43:57;98116.03;;;6.07;100.00
49645;BME280;36494;50.730;-1.932;2024-02-23T00:46:24;98117.34;;;6.07;100.00
49645;BME280;36494;50.730;-1.932;2024-02-23T00:48:49;98120.20;;;6.07;100.00
49645;BME280;36494;50.730;-1.932;2024-02-23T00:51:15;98121.35;;;6.05;100.00
49645;BME280;36494;50.730;-1.932;2024-02-23T00:53:41;98118.73;;;6.01;100.00
49645;BME280;36494;50.730;-1.932;2024-02-23T00:56:08;98114.17;;;6.00;100.00
49645;BME280;36494;50.730;-1.932;2024-02-23T00:58:32;98111.12;;;5.91;100.00
49645;BME280;36494;50.730;-1.932;2024-02-23T01:00:58;98098.06;;;5.95;100.00
49645;BME280;36494;50.730;-1.932;2024-02-23T01:03:23;98099.37;;;5.96;100.00
49645;BME280;36494;50.730;-1.932;2024-02-23T01:05:49;98098.51;;;5.93;100.00
49645;BME280;36494;50.730;-1.932;2024-02-23T01:08:14;98114.23;;;5.92;100.00
49645;BME280;36494;50.730;-1.932;2024-02-23T01:10:40;98120.59;;;5.64;100.00
49645;BME280;36494;50.730;-1.932;2024-02-23T01:13:06;98110.21;;;5.37;100.00
49645;BME280;36494;50.730;-1.932;2024-02-23T01:15:32;98113.05;;;5.21;100.00
49645;BME280;36494;50.730;-1.932;2024-02-23T01:17:58;98101.00;;;5.16;100.00
49645;BME280;36494;50.730;-1.932;2024-02-23T01:20:24;98101.27;;;5.15;100.00
49645;BME280;36494;50.730;-1.932;2024-02-23T01:22:49;98096.45;;;5.18;100.00
49645;BME280;36494;50.730;-1.932;2024-02-23T01:25:14;98090.71;;;5.15;100.00
49645;BME280;36494;50.730;-1.932;2024-02-23T01:27:40;98089.83;;;5.08;100.00
49645;BME280;36494;50.730;-1.932;2024-02-23T01:30:07;98087.34;;;5.15;100.00
49645;BME280;36494;50.730;-1.932;2024-02-23T01:32:31;98086.49;;;5.15;100.00
49645;BME280;36494;50.730;-1.932;2024-02-23T01:34:57;98082.38;;;5.13;100.00
49645;BME280;36494;50.730;-1.932;2024-02-23T01:37:23;98081.20;;;5.20;100.00
49645;BME280;36494;50.730;-1.932;2024-02-23T01:39:49;98077.63;;;5.17;100.00
49645;BME280;36494;50.730;-1.932;2024-02-23T01:42:15;98076.08;;;5.16;100.00
49645;BME280;36494;50.730;-1.932;2024-02-23T01:44:41;98081.28;;;5.21;100.00
49645;BME280;36494;50.730;-1.932;2024-02-23T01:47:06;98078.51;;;5.19;100.00
49645;BME280;36494;50.730;-1.932;2024-02-23T01:49:32;98072.26;;;5.18;100.00
49645;BME280;36494;50.730;-1.932;2024-02-23T01:51:57;98069.92;;;5.24;100.00
49645;BME280;36494;50.730;-1.932;2024-02-23T01:54:23;98076.93;;;5.21;100.00
49645;BME280;36494;50.730;-1.932;2024-02-23T01:56:49;98076.88;;;5.17;100.00
49645;BME280;36494;50.730;-1.932;2024-02-23T01:59:14;98078.39;;;5.23;100.00
49645;BME280;36494;50.730;-1.932;2024-02-23T02:01:43;98077.62;;;5.24;100.00
49645;BME280;36494;50.730;-1.932;2024-02-23T02:04:05;98074.45;;;5.29;100.00
49645;BME280;36494;50.730;-1.932;2024-02-23T02:06:31;98069.62;;;5.35;100.00
49645;BME280;36494;50.730;-1.932;2024-02-23T02:08:56;98073.80;;;5.38;100.00
49645;BME280;36494;50.730;-1.932;2024-02-23T02:11:23;98075.01;;;5.45;100.00
49645;BME280;36494;50.730;-1.932;2024-02-23T02:13:48;98070.13;;;5.46;100.00
49645;BME280;36494;50.730;-1.932;2024-02-23T02:16:13;98068.71;;;5.49;100.00
49645;BME280;36494;50.730;-1.932;2024-02-23T02:18:39;98073.00;;;5.44;100.00
49645;BME280;36494;50.730;-1.932;2024-02-23T02:21:05;98082.22;;;5.44;100.00
49645;BME280;36494;50.730;-1.932;2024-02-23T02:23:30;98082.27;;;5.43;100.00
49645;BME280;36494;50.730;-1.932;2024-02-23T02:25:56;98085.13;;;5.41;100.00
49645;BME280;36494;50.730;-1.932;2024-02-23T02:28:22;98089.94;;;5.43;100.00
49645;BME280;36494;50.730;-1.932;2024-02-23T02:30:47;98092.72;;;5.42;100.00
49645;BME280;36494;50.730;-1.932;2024-02-23T02:33:13;98104.62;;;5.40;100.00
49645;BME280;36494;50.730;-1.932;2024-02-23T02:35:38;98094.30;;;5.39;100.00
49645;BME280;36494;50.730;-1.932;2024-02-23T02:38:04;98090.09;;;5.36;100.00
49645;BME280;36494;50.730;-1.932;2024-02-23T02:40:29;98089.72;;;5.38;100.00
49645;BME280;36494;50.730;-1.932;2024-02-23T02:42:55;98086.82;;;5.32;100.00
49645;BME280;36494;50.730;-1.932;2024-02-23T02:45:22;98082.89;;;5.35;100.00
49645;BME280;36494;50.730;-1.932;2024-02-23T02:47:47;98079.14;;;5.34;100.00
49645;BME280;36494;50.730;-1.932;2024-02-23T02:50:13;98083.43;;;5.36;100.00
49645;BME280;36494;50.730;-1.932;2024-02-23T02:52:38;98090.20;;;5.37;100.00
49645;BME280;36494;50.730;-1.932;2024-02-23T02:55:04;98085.79;;;5.39;100.00
49645;BME280;36494;50.730;-1.932;2024-02-23T02:57:29;98094.49;;;5.44;100.00
49645;BME280;36494;50.730;-1.932;2024-02-23T02:59:55;98082.81;;;5.40;100.00
49645;BME280;36494;50.730;-1.932;2024-02-23T03:02:21;98086.42;;;5.38;100.00
49645;BME280;36494;50.730;-1.932;2024-02-23T03:04:47;98084.12;;;5.42;100.00
49645;BME280;36494;50.730;-1.932;2024-02-23T03:07:11;98085.27;;;5.38;100.00
49645;BME280;36494;50.730;-1.932;2024-02-23T03:09:39;98085.44;;;5.33;100.00
49645;BME280;36494;50.730;-1.932;2024-02-23T03:12:03;98085.09;;;5.35;100.00
49645;BME280;36494;50.730;-1.932;2024-02-23T03:14:28;98084.59;;;5.30;100.00
49645;BME280;36494;50.730;-1.932;2024-02-23T03:16:55;98085.18;;;5.36;100.00
49645;BME280;36494;50.730;-1.932;2024-02-23T03:19:20;98086.46;;;5.22;100.00
49645;BME280;36494;50.730;-1.932;2024-02-23T03:21:50;98084.74;;;5.22;100.00
49645;BME280;36494;50.730;-1.932;2024-02-23T03:24:11;98082.19;;;5.20;100.00
49645;BME280;36494;50.730;-1.932;2024-02-23T03:26:37;98081.23;;;5.18;100.00
49645;BME280;36494;50.730;-1.932;2024-02-23T03:29:02;98077.41;;;5.16;100.00
49645;BME280;36494;50.730;-1.932;2024-02-23T03:31:28;98070.13;;;5.17;100.00
49645;BME280;36494;50.730;-1.932;2024-02-23T03:33:54;98064.78;;;5.11;100.00
49645;BME280;36494;50.730;-1.932;2024-02-23T03:36:19;98064.96;;;5.12;100.00
49645;BME280;36494;50.730;-1.932;2024-02-23T03:38:45;98062.58;;;5.15;100.00
49645;BME280;36494;50.730;-1.932;2024-02-23T03:41:10;98058.10;;;5.14;100.00
49645;BME280;36494;50.730;-1.932;2024-02-23T03:43:36;98061.53;;;5.10;100.00
49645;BME280;36494;50.730;-1.932;2024-02-23T03:46:01;98067.33;;;5.10;100.00
49645;BME280;36494;50.730;-1.932;2024-02-23T03:48:27;98066.23;;;5.13;100.00
49645;BME280;36494;50.730;-1.932;2024-02-23T03:50:54;98070.11;;;5.08;100.00
49645;BME280;36494;50.730;-1.932;2024-02-23T03:53:19;98076.63;;;5.09;100.00
49645;BME280;36494;50.730;-1.932;2024-02-23T03:55:45;98082.86;;;5.07;100.00
49645;BME280;36494;50.730;-1.932;2024-02-23T03:58:14;98087.29;;;5.12;100.00
49645;BME280;36494;50.730;-1.932;2024-02-23T04:00:36;98084.16;;;5.05;100.00
49645;BME280;36494;50.730;-1.932;2024-02-23T04:03:02;98081.66;;;5.08;100.00
49645;BME280;36494;50.730;-1.932;2024-02-23T04:05:27;98085.97;;;5.06;100.00
49645;BME280;36494;50.730;-1.932;2024-02-23T04:07:53;98089.89;;;5.04;100.00
49645;BME280;36494;50.730;-1.932;2024-02-23T04:10:19;98091.99;;;5.00;100.00
49645;BME280;36494;50.730;-1.932;2024-02-23T04:12:46;98095.64;;;5.03;100.00
49645;BME280;36494;50.730;-1.932;2024-02-23T04:15:10;98092.78;;;5.09;100.00
49645;BME280;36494;50.730;-1.932;2024-02-23T04:17:36;98084.18;;;5.02;100.00
49645;BME280;36494;50.730;-1.932;2024-02-23T04:20:07;98080.24;;;5.04;100.00
49645;BME280;36494;50.730;-1.932;2024-02-23T04:22:29;98080.92;;;5.08;100.00
49645;BME280;36494;50.730;-1.932;2024-02-23T04:24:53;98080.75;;;5.05;100.00
49645;BME280;36494;50.730;-1.932;2024-02-23T04:27:19;98078.56;;;5.07;100.00
49645;BME280;36494;50.730;-1.932;2024-02-23T04:29:44;98080.87;;;5.04;100.00
49645;BME280;36494;50.730;-1.932;2024-02-23T04:32:10;98085.59;;;5.03;100.00
49645;BME280;36494;50.730;-1.932;2024-02-23T04:34:36;98089.57;;;5.04;100.00
49645;BME280;36494;50.730;-1.932;2024-02-23T04:37:01;98090.87;;;5.01;100.00
49645;BME280;36494;50.730;-1.932;2024-02-23T04:39:27;98098.76;;;5.03;100.00
49645;BME280;36494;50.730;-1.932;2024-02-23T04:41:54;98103.19;;;5.02;100.00
49645;BME280;36494;50.730;-1.932;2024-02-23T04:44:19;98106.78;;;5.04;100.00
49645;BME280;36494;50.730;-1.932;2024-02-23T04:46:45;98113.27;;;5.04;100.00
49645;BME280;36494;50.730;-1.932;2024-02-23T04:49:10;98117.59;;;5.05;100.00
49645;BME280;36494;50.730;-1.932;2024-02-23T04:51:36;98120.39;;;5.01;100.00
49645;BME280;36494;50.730;-1.932;2024-02-23T04:54:01;98116.01;;;5.09;100.00
49645;BME280;36494;50.730;-1.932;2024-02-23T04:56:27;98113.10;;;5.00;100.00
49645;BME280;36494;50.730;-1.932;2024-02-23T04:58:52;98114.81;;;5.11;100.00
49645;BME280;36494;50.730;-1.932;2024-02-23T05:01:18;98120.13;;;5.02;100.00
49645;BME280;36494;50.730;-1.932;2024-02-23T05:03:43;98124.29;;;5.02;100.00
49645;BME280;36494;50.730;-1.932;2024-02-23T05:06:09;98126.68;;;5.02;100.00
49645;BME280;36494;50.730;-1.932;2024-02-23T05:08:34;98132.37;;;5.02;100.00
49645;BME280;36494;50.730;-1.932;2024-02-23T05:11:02;98129.39;;;5.03;100.00
49645;BME280;36494;50.730;-1.932;2024-02-23T05:13:26;98126.17;;;4.98;100.00
49645;BME280;36494;50.730;-1.932;2024-02-23T05:15:51;98130.32;;;4.90;100.00
49645;BME280;36494;50.730;-1.932;2024-02-23T05:18:17;98133.81;;;4.96;100.00
49645;BME280;36494;50.730;-1.932;2024-02-23T05:20:43;98138.01;;;4.84;100.00
49645;BME280;36494;50.730;-1.932;2024-02-23T05:23:12;98134.11;;;4.96;100.00
49645;BME280;36494;50.730;-1.932;2024-02-23T05:25:34;98132.09;;;4.88;100.00
49645;BME280;36494;50.730;-1.932;2024-02-23T05:28:00;98129.88;;;4.83;100.00
49645;BME280;36494;50.730;-1.932;2024-02-23T05:30:26;98127.04;;;4.85;100.00
49645;BME280;36494;50.730;-1.932;2024-02-23T05:32:51;98123.91;;;4.86;100.00
49645;BME280;36494;50.730;-1.932;2024-02-23T05:35:17;98127.43;;;4.83;100.00
49645;BME280;36494;50.730;-1.932;2024-02-23T05:37:42;98132.29;;;4.86;100.00
49645;BME280;36494;50.730;-1.932;2024-02-23T05:40:08;98136.58;;;4.82;100.00
49645;BME280;36494;50.730;-1.932;2024-02-23T05:42:33;98138.38;;;4.79;100.00
49645;BME280;36494;50.730;-1.932;2024-02-23T05:44:58;98145.41;;;4.87;100.00
49645;BME280;36494;50.730;-1.932;2024-02-23T05:47:24;98145.05;;;4.88;100.00
49645;BME280;36494;50.730;-1.932;2024-02-23T05:49:50;98147.39;;;4.92;100.00
49645;BME280;36494;50.730;-1.932;2024-02-23T05:52:15;98146.04;;;4.88;100.00
49645;BME280;36494;50.730;-1.932;2024-02-23T05:54:41;98143.23;;;4.96;100.00
49645;BME280;36494;50.730;-1.932;2024-02-23T05:57:07;98134.79;;;4.98;100.00
49645;BME280;36494;50.730;-1.932;2024-02-23T05:59:33;98131.36;;;4.99;100.00
49645;BME280;36494;50.730;-1.932;2024-02-23T06:01:59;98134.99;;;4.99;100.00
49645;BME280;36494;50.730;-1.932;2024-02-23T06:04:24;98136.05;;;5.04;100.00
49645;BME280;36494;50.730;-1.932;2024-02-23T06:06:50;98135.90;;;5.08;100.00
49645;BME280;36494;50.730;-1.932;2024-02-23T06:09:16;98133.04;;;5.09;100.00
49645;BME280;36494;50.730;-1.932;2024-02-23T06:11:41;98135.97;;;5.04;100.00
49645;BME280;36494;50.730;-1.932;2024-02-23T06:14:07;98143.55;;;5.14;100.00
49645;BME280;36494;50.730;-1.932;2024-02-23T06:16:32;98145.55;;;5.09;100.00
49645;BME280;36494;50.730;-1.932;2024-02-23T06:18:58;98146.10;;;5.19;100.00
49645;BME280;36494;50.730;-1.932;2024-02-23T06:21:24;98145.75;;;5.14;100.00
49645;BME280;36494;50.730;-1.932;2024-02-23T06:23:54;98131.92;;;5.11;100.00
49645;BME280;36494;50.730;-1.932;2024-02-23T06:26:16;98131.02;;;5.07;100.00
49645;BME280;36494;50.730;-1.932;2024-02-23T06:28:42;98126.99;;;5.08;100.00
49645;BME280;36494;50.730;-1.932;2024-02-23T06:31:07;98129.67;;;5.08;100.00
49645;BME280;36494;50.730;-1.932;2024-02-23T06:33:32;98127.69;;;5.01;100.00
49645;BME280;36494;50.730;-1.932;2024-02-23T06:35:58;98128.89;;;5.09;100.00
49645;BME280;36494;50.730;-1.932;2024-02-23T06:38:23;98121.17;;;5.05;100.00
49645;BME280;36494;50.730;-1.932;2024-02-23T06:40:49;98117.11;;;5.03;100.00
49645;BME280;36494;50.730;-1.932;2024-02-23T06:43:14;98116.26;;;5.05;100.00
49645;BME280;36494;50.730;-1.932;2024-02-23T06:45:40;98112.92;;;5.04;100.00
49645;BME280;36494;50.730;-1.932;2024-02-23T06:48:06;98110.11;;;5.11;100.00
49645;BME280;36494;50.730;-1.932;2024-02-23T06:50:31;98114.58;;;5.07;100.00
49645;BME280;36494;50.730;-1.932;2024-02-23T06:52:56;98116.01;;;5.10;100.00
49645;BME280;36494;50.730;-1.932;2024-02-23T06:55:22;98116.94;;;5.08;100.00
49645;BME280;36494;50.730;-1.932;2024-02-23T06:57:48;98123.19;;;5.11;100.00
49645;BME280;36494;50.730;-1.932;2024-02-23T07:00:16;98125.18;;;5.07;100.00
49645;BME280;36494;50.730;-1.932;2024-02-23T07:02:40;98120.85;;;5.15;100.00
49645;BME280;36494;50.730;-1.932;2024-02-23T07:05:06;98124.46;;;5.08;100.00
49645;BME280;36494;50.730;-1.932;2024-02-23T07:07:32;98127.27;;;5.11;100.00
49645;BME280;36494;50.730;-1.932;2024-02-23T07:09:57;98129.31;;;5.13;100.00
49645;BME280;36494;50.730;-1.932;2024-02-23T07:12:24;98132.91;;;5.14;100.00
49645;BME280;36494;50.730;-1.932;2024-02-23T07:14:49;98140.52;;;5.13;100.00
49645;BME280;36494;50.730;-1.932;2024-02-23T07:17:16;98142.46;;;5.19;100.00
49645;BME280;36494;50.730;-1.932;2024-02-23T07:19:39;98144.07;;;5.20;100.00
49645;BME280;36494;50.730;-1.932;2024-02-23T07:22:05;98147.70;;;5.15;100.00
49645;BME280;36494;50.730;-1.932;2024-02-23T07:24:32;98148.51;;;5.18;100.00
49645;BME280;36494;50.730;-1.932;2024-02-23T07:26:56;98150.41;;;5.23;100.00
49645;BME280;36494;50.730;-1.932;2024-02-23T07:29:23;98154.05;;;5.22;100.00
49645;BME280;36494;50.730;-1.932;2024-02-23T07:31:49;98157.28;;;5.28;100.00
49645;BME280;36494;50.730;-1.932;2024-02-23T07:34:14;98158.41;;;5.22;100.00
49645;BME280;36494;50.730;-1.932;2024-02-23T07:36:40;98159.88;;;5.20;100.00
49645;BME280;36494;50.730;-1.932;2024-02-23T07:39:06;98164.05;;;5.28;100.00
49645;BME280;36494;50.730;-1.932;2024-02-23T07:41:31;98170.46;;;5.27;100.00
49645;BME280;36494;50.730;-1.932;2024-02-23T07:43:57;98171.80;;;5.27;100.00
49645;BME280;36494;50.730;-1.932;2024-02-23T07:46:22;98180.26;;;5.29;100.00
49645;BME280;36494;50.730;-1.932;2024-02-23T07:48:48;98178.85;;;5.26;100.00
49645;BME280;36494;50.730;-1.932;2024-02-23T07:51:13;98179.11;;;5.25;100.00
49645;BME280;36494;50.730;-1.932;2024-02-23T07:53:39;98180.11;;;5.22;100.00
49645;BME280;36494;50.730;-1.932;2024-02-23T07:56:07;98177.02;;;5.21;100.00
49645;BME280;36494;50.730;-1.932;2024-02-23T07:58:31;98178.19;;;5.20;100.00
49645;BME280;36494;50.730;-1.932;2024-02-23T08:00:57;98179.88;;;5.24;100.00
49645;BME280;36494;50.730;-1.932;2024-02-23T08:03:22;98185.14;;;5.14;100.00
49645;BME280;36494;50.730;-1.932;2024-02-23T08:05:48;98184.99;;;5.23;100.00
49645;BME280;36494;50.730;-1.932;2024-02-23T08:08:14;98184.96;;;5.11;100.00
49645;BME280;36494;50.730;-1.932;2024-02-23T08:10:40;98187.37;;;5.22;100.00
49645;BME280;36494;50.730;-1.932;2024-02-23T08:13:05;98190.92;;;5.20;100.00
49645;BME280;36494;50.730;-1.932;2024-02-23T08:15:31;98193.05;;;5.15;100.00
49645;BME280;36494;50.730;-1.932;2024-02-23T08:17:57;98195.36;;;5.17;100.00
49645;BME280;36494;50.730;-1.932;2024-02-23T08:20:22;98189.95;;;5.21;100.00
49645;BME280;36494;50.730;-1.932;2024-02-23T08:22:49;98186.19;;;5.21;100.00
49645;BME280;36494;50.730;-1.932;2024-02-23T08:25:15;98187.07;;;5.26;100.00
49645;BME280;36494;50.730;-1.932;2024-02-23T08:27:40;98191.42;;;5.28;100.00
49645;BME280;36494;50.730;-1.932;2024-02-23T08:30:07;98194.39;;;5.27;100.00
49645;BME280;36494;50.730;-1.932;2024-02-23T08:32:31;98201.80;;;5.35;100.00
49645;BME280;36494;50.730;-1.932;2024-02-23T08:34:57;98202.37;;;5.29;100.00
49645;BME280;36494;50.730;-1.932;2024-02-23T08:37:26;98205.30;;;5.39;100.00
49645;BME280;36494;50.730;-1.932;2024-02-23T08:39:48;98204.79;;;5.40;100.00
49645;BME280;36494;50.730;-1.932;2024-02-23T08:42:14;98204.99;;;5.47;100.00
49645;BME280;36494;50.730;-1.932;2024-02-23T08:44:40;98205.45;;;5.51;100.00
49645;BME280;36494;50.730;-1.932;2024-02-23T08:47:05;98208.35;;;5.58;100.00
49645;BME280;36494;50.730;-1.932;2024-02-23T08:49:32;98214.17;;;5.58;100.00
49645;BME280;36494;50.730;-1.932;2024-02-23T08:51:56;98215.57;;;5.65;100.00
49645;BME280;36494;50.730;-1.932;2024-02-23T08:54:22;98216.45;;;5.65;100.00
49645;BME280;36494;50.730;-1.932;2024-02-23T08:56:48;98216.62;;;5.63;100.00
49645;BME280;36494;50.730;-1.932;2024-02-23T08:59:14;98216.80;;;5.67;100.00
49645;BME280;36494;50.730;-1.932;2024-02-23T09:01:42;98216.60;;;5.71;100.00
49645;BME280;36494;50.730;-1.932;2024-02-23T09:04:05;98220.71;;;5.78;100.00
49645;BME280;36494;50.730;-1.932;2024-02-23T09:06:30;98221.35;;;5.78;100.00
49645;BME280;36494;50.730;-1.932;2024-02-23T09:08:56;98220.71;;;5.83;100.00
49645;BME280;36494;50.730;-1.932;2024-02-23T09:11:22;98219.58;;;5.87;100.00
49645;BME280;36494;50.730;-1.932;2024-02-23T09:13:47;98216.67;;;5.91;100.00
49645;BME280;36494;50.730;-1.932;2024-02-23T09:16:13;98215.38;;;5.97;100.00
49645;BME280;36494;50.730;-1.932;2024-02-23T09:18:38;98210.69;;;6.03;100.00
49645;BME280;36494;50.730;-1.932;2024-02-23T09:21:05;98205.39;;;6.05;100.00
49645;BME280;36494;50.730;-1.932;2024-02-23T09:23:31;98204.19;;;6.11;100.00
49645;BME280;36494;50.730;-1.932;2024-02-23T09:25:56;98206.73;;;6.17;100.00
49645;BME280;36494;50.730;-1.932;2024-02-23T09:28:21;98207.71;;;6.21;100.00
49645;BME280;36494;50.730;-1.932;2024-02-23T09:30:47;98205.98;;;6.24;100.00
49645;BME280;36494;50.730;-1.932;2024-02-23T09:33:13;98208.50;;;6.30;100.00
49645;BME280;36494;50.730;-1.932;2024-02-23T09:35:38;98208.47;;;6.35;100.00
49645;BME280;36494;50.730;-1.932;2024-02-23T09:38:04;98207.97;;;6.40;100.00
49645;BME280;36494;50.730;-1.932;2024-02-23T09:40:30;98209.67;;;6.51;100.00
49645;BME280;36494;50.730;-1.932;2024-02-23T09:42:56;98206.31;;;6.58;100.00
49645;BME280;36494;50.730;-1.932;2024-02-23T09:45:21;98204.13;;;6.67;100.00
49645;BME280;36494;50.730;-1.932;2024-02-23T09:47:47;98204.26;;;6.75;100.00
49645;BME280;36494;50.730;-1.932;2024-02-23T09:50:13;98202.37;;;6.79;100.00
49645;BME280;36494;50.730;-1.932;2024-02-23T09:52:38;98203.78;;;6.87;100.00
49645;BME280;36494;50.730;-1.932;2024-02-23T09:55:04;98205.44;;;6.91;100.00
49645;BME280;36494;50.730;-1.932;2024-02-23T09:57:30;98206.53;;;6.92;100.00
49645;BME280;36494;50.730;-1.932;2024-02-23T09:59:55;98209.54;;;6.94;100.00
49645;BME280;36494;50.730;-1.932;2024-02-23T10:02:22;98212.08;;;7.01;100.00
49645;BME280;36494;50.730;-1.932;2024-02-23T10:04:48;98210.82;;;7.09;100.00
49645;BME280;36494;50.730;-1.932;2024-02-23T10:07:14;98215.37;;;7.05;100.00
49645;BME280;36494;50.730;-1.932;2024-02-23T10:09:37;98212.23;;;7.12;100.00
49645;BME280;36494;50.730;-1.932;2024-02-23T10:12:03;98210.54;;;7.17;100.00
49645;BME280;36494;50.730;-1.932;2024-02-23T10:14:28;98214.30;;;7.12;100.00
49645;BME280;36494;50.730;-1.932;2024-02-23T10:16:54;98218.30;;;7.01;100.00
49645;BME280;36494;50.730;-1.932;2024-02-23T10:19:21;98222.47;;;7.05;100.00
49645;BME280;36494;50.730;-1.932;2024-02-23T10:21:46;98223.57;;;7.09;100.00
49645;BME280;36494;50.730;-1.932;2024-02-23T10:24:11;98227.02;;;7.17;100.00
49645;BME280;36494;50.730;-1.932;2024-02-23T10:26:37;98228.37;;;7.08;100.00
49645;BME280;36494;50.730;-1.932;2024-02-23T10:29:03;98228.31;;;7.11;100.00
49645;BME280;36494;50.730;-1.932;2024-02-23T10:31:30;98229.49;;;7.16;100.00
49645;BME280;36494;50.730;-1.932;2024-02-23T10:33:57;98234.24;;;7.19;100.00
49645;BME280;36494;50.730;-1.932;2024-02-23T10:36:20;98236.11;;;7.22;100.00
49645;BME280;36494;50.730;-1.932;2024-02-23T10:38:46;98240.93;;;7.36;100.00
49645;BME280;36494;50.730;-1.932;2024-02-23T10:41:13;98242.78;;;7.28;100.00
49645;BME280;36494;50.730;-1.932;2024-02-23T10:43:41;98253.45;;;7.40;100.00
49645;BME280;36494;50.730;-1.932;2024-02-23T10:46:01;98253.85;;;7.61;100.00
49645;BME280;36494;50.730;-1.932;2024-02-23T10:48:27;98249.99;;;7.89;100.00
49645;BME280;36494;50.730;-1.932;2024-02-23T10:50:56;98254.29;;;8.09;100.00
49645;BME280;36494;50.730;-1.932;2024-02-23T10:53:19;98256.68;;;8.19;100.00
49645;BME280;36494;50.730;-1.932;2024-02-23T10:55:45;98250.18;;;8.12;100.00
49645;BME280;36494;50.730;-1.932;2024-02-23T10:58:10;98247.46;;;8.22;100.00
49645;BME280;36494;50.730;-1.932;2024-02-23T11:00:36;98243.58;;;8.22;100.00
49645;BME280;36494;50.730;-1.932;2024-02-23T11:03:03;98240.34;;;8.29;100.00
49645;BME280;36494;50.730;-1.932;2024-02-23T11:05:27;98242.21;;;8.23;100.00
49645;BME280;36494;50.730;-1.932;2024-02-23T11:07:56;98245.02;;;8.03;100.00
49645;BME280;36494;50.730;-1.932;2024-02-23T11:10:18;98245.92;;;8.05;100.00
49645;BME280;36494;50.730;-1.932;2024-02-23T11:12:44;98246.02;;;8.07;100.00
49645;BME280;36494;50.730;-1.932;2024-02-23T11:17:36;98248.60;;;8.04;100.00
49645;BME280;36494;50.730;-1.932;2024-02-23T11:20:04;98248.99;;;8.07;100.00
49645;BME280;36494;50.730;-1.932;2024-02-23T11:22:30;98243.55;;;8.05;100.00
49645;BME280;36494;50.730;-1.932;2024-02-23T11:24:53;98249.18;;;8.04;100.00
49645;BME280;36494;50.730;-1.932;2024-02-23T11:27:19;98246.05;;;7.92;100.00
49645;BME280;36494;50.730;-1.932;2024-02-23T11:29:46;98250.79;;;7.83;100.00
49645;BME280;36494;50.730;-1.932;2024-02-23T11:32:13;98247.46;;;7.87;100.00
49645;BME280;36494;50.730;-1.932;2024-02-23T11:34:35;98250.87;;;7.95;100.00
49645;BME280;36494;50.730;-1.932;2024-02-23T11:37:07;98251.90;;;8.02;100.00
49645;BME280;36494;50.730;-1.932;2024-02-23T11:39:29;98256.57;;;8.07;100.00
49645;BME280;36494;50.730;-1.932;2024-02-23T11:41:53;98254.08;;;8.15;100.00
49645;BME280;36494;50.730;-1.932;2024-02-23T11:44:18;98254.52;;;8.07;100.00
49645;BME280;36494;50.730;-1.932;2024-02-23T11:46:44;98252.87;;;8.22;100.00
49645;BME280;36494;50.730;-1.932;2024-02-23T11:49:10;98254.21;;;8.22;100.00
49645;BME280;36494;50.730;-1.932;2024-02-23T11:51:35;98252.44;;;8.20;100.00
49645;BME280;36494;50.730;-1.932;2024-02-23T11:54:01;98250.27;;;8.24;100.00
49645;BME280;36494;50.730;-1.932;2024-02-23T11:56:26;98244.83;;;8.12;100.00
49645;BME280;36494;50.730;-1.932;2024-02-23T11:58:53;98240.62;;;8.04;100.00
49645;BME280;36494;50.730;-1.932;2024-02-23T12:01:18;98238.01;;;7.96;100.00
49645;BME280;36494;50.730;-1.932;2024-02-23T12:03:44;98234.08;;;7.75;100.00
49645;BME280;36494;50.730;-1.932;2024-02-23T12:06:10;98233.97;;;7.68;100.00
49645;BME280;36494;50.730;-1.932;2024-02-23T12:08:35;98229.14;;;7.72;100.00
49645;BME280;36494;50.730;-1.932;2024-02-23T12:11:01;98228.33;;;7.75;100.00
49645;BME280;36494;50.730;-1.932;2024-02-23T12:13:26;98233.71;;;7.67;100.00
49645;BME280;36494;50.730;-1.932;2024-02-23T12:15:53;98233.87;;;7.76;100.00
49645;BME280;36494;50.730;-1.932;2024-02-23T12:18:21;98233.08;;;7.71;100.00
49645;BME280;36494;50.730;-1.932;2024-02-23T12:20:47;98229.83;;;7.78;100.00
49645;BME280;36494;50.730;-1.932;2024-02-23T12:23:09;98229.24;;;7.75;100.00
49645;BME280;36494;50.730;-1.932;2024-02-23T12:25:34;98230.32;;;7.73;100.00
49645;BME280;36494;50.730;-1.932;2024-02-23T12:28:01;98232.87;;;7.60;100.00
49645;BME280;36494;50.730;-1.932;2024-02-23T12:30:29;98233.32;;;7.55;100.00
49645;BME280;36494;50.730;-1.932;2024-02-23T12:35:18;98223.50;;;7.50;100.00
49645;BME280;36494;50.730;-1.932;2024-02-23T12:37:44;98216.44;;;7.63;100.00
49645;BME280;36494;50.730;-1.932;2024-02-23T12:40:10;98216.43;;;7.54;100.00
49645;BME280;36494;50.730;-1.932;2024-02-23T12:42:35;98219.01;;;7.53;100.00
49645;BME280;36494;50.730;-1.932;2024-02-23T12:45:00;98214.98;;;7.72;100.00